Time;durP1;ratioP1;P1;durP2;ratioP2;P2;SDS_P1;SDS_P2;PMS_P1;PMS_P2;Temp;Humidity;BMP_temperature;BMP_pressure;BME280_temperature;BME280_humidity;BME280_pressure;Samples;Min_cycle;Max_cycle;Signal;HPM_P1;HPM_P2
2021/03/03 00:00:44;;;;;;;17.53;10.20;;;2.20;54.50;;;;;;4992951;28;20452;-76
2021/03/03 00:03:11;;;;;;;14.47;10.67;;;2.10;54.40;;;;;;4989074;28;20910;-75
2021/03/03 00:05:37;;;;;;;12.20;10.03;;;2.10;54.50;;;;;;4994360;28;20484;-78
2021/03/03 00:08:04;;;;;;;15.40;10.13;;;2.00;54.40;;;;;;4985824;28;20448;-76
2021/03/03 00:10:30;;;;;;;13.70;9.83;;;2.00;54.80;;;;;;4989550;28;20450;-79
2021/03/03 00:12:56;;;;;;;13.13;9.47;;;1.90;55.10;;;;;;4987551;28;20460;-76
2021/03/03 00:15:23;;;;;;;16.97;10.73;;;1.80;55.20;;;;;;4989968;28;20456;-74
2021/03/03 00:17:50;;;;;;;15.03;8.97;;;1.70;55.30;;;;;;4990413;28;20480;-75
2021/03/03 00:20:16;;;;;;;12.60;9.20;;;1.80;55.70;;;;;;4984096;28;20462;-74
2021/03/03 00:22:43;;;;;;;17.97;9.00;;;1.80;55.70;;;;;;4985608;28;20503;-77
2021/03/03 00:25:09;;;;;;;13.60;9.30;;;1.70;55.50;;;;;;4990077;28;20560;-75
2021/03/03 00:27:36;;;;;;;13.77;9.20;;;1.80;55.90;;;;;;4988517;28;21076;-75
2021/03/03 00:30:03;;;;;;;12.40;8.60;;;1.80;56.00;;;;;;4990504;28;20552;-75
2021/03/03 00:32:31;;;;;;;13.60;9.43;;;1.70;55.70;;;;;;4993567;28;20474;-76
2021/03/03 00:34:57;;;;;;;11.97;9.17;;;1.70;56.40;;;;;;5003402;28;20495;-77
2021/03/03 00:37:23;;;;;;;11.07;9.00;;;1.60;56.40;;;;;;5008088;28;20461;-79
2021/03/03 00:39:50;;;;;;;12.77;9.10;;;1.70;56.70;;;;;;5007219;28;20482;-76
2021/03/03 00:42:16;;;;;;;13.97;8.87;;;1.70;56.70;;;;;;4998130;28;21485;-77
2021/03/03 00:44:43;;;;;;;11.87;8.37;;;1.60;56.80;;;;;;4992971;28;20473;-77
2021/03/03 00:47:09;;;;;;;12.40;8.37;;;1.50;56.90;;;;;;4992945;28;20452;-77
2021/03/03 00:49:36;;;;;;;13.70;9.50;;;1.40;57.40;;;;;;4992514;28;20636;-76
2021/03/03 00:52:02;;;;;;;14.43;9.70;;;1.40;57.50;;;;;;4987775;28;20823;-77
2021/03/03 00:54:29;;;;;;;13.03;8.30;;;1.50;57.60;;;;;;4988390;28;20445;-75
2021/03/03 00:56:55;;;;;;;14.43;9.40;;;1.50;57.40;;;;;;4986116;28;20448;-76
2021/03/03 00:59:21;;;;;;;13.40;8.83;;;1.50;57.80;;;;;;4984129;28;20453;-76
2021/03/03 01:01:48;;;;;;;14.90;9.40;;;1.50;57.60;;;;;;4993992;28;20452;-77
2021/03/03 01:04:14;;;;;;;17.50;9.70;;;1.50;58.10;;;;;;4990241;28;20459;-76
2021/03/03 01:06:41;;;;;;;16.20;8.57;;;1.50;58.10;;;;;;4994953;28;20476;-76
2021/03/03 01:09:08;;;;;;;13.80;8.73;;;1.40;58.50;;;;;;4997689;28;20455;-75
2021/03/03 01:11:34;;;;;;;12.87;9.40;;;1.40;58.80;;;;;;4991536;28;20475;-75
2021/03/03 01:14:01;;;;;;;14.27;9.10;;;1.30;58.80;;;;;;4986808;28;20458;-75
2021/03/03 01:16:27;;;;;;;15.50;9.40;;;1.30;59.20;;;;;;4987813;28;20491;-80
2021/03/03 01:18:53;;;;;;;13.13;8.50;;;1.20;59.50;;;;;;4985026;28;20461;-75
2021/03/03 01:21:20;;;;;;;12.73;8.80;;;1.00;59.80;;;;;;4985668;28;20469;-74
2021/03/03 01:23:47;;;;;;;11.63;8.00;;;1.00;60.10;;;;;;4990003;28;20543;-75
2021/03/03 01:26:13;;;;;;;13.77;9.10;;;1.00;60.70;;;;;;4985245;28;20470;-76
2021/03/03 01:28:39;;;;;;;15.27;9.50;;;0.90;61.00;;;;;;4984204;28;20538;-75
2021/03/03 01:31:06;;;;;;;14.10;9.20;;;0.90;61.80;;;;;;4984436;28;20479;-75
2021/03/03 01:33:33;;;;;;;15.40;9.30;;;0.90;62.30;;;;;;4983553;28;20461;-76
2021/03/03 01:35:59;;;;;;;13.73;8.87;;;0.80;62.40;;;;;;4980367;28;20457;-75
2021/03/03 01:38:26;;;;;;;14.20;8.80;;;1.00;62.70;;;;;;4984141;28;20488;-75
2021/03/03 01:40:54;;;;;;;12.67;8.40;;;1.00;63.10;;;;;;4982343;28;20464;-75
2021/03/03 01:43:20;;;;;;;15.77;7.87;;;1.00;63.00;;;;;;4983438;28;20859;-77
2021/03/03 01:45:48;;;;;;;11.37;8.63;;;0.90;63.20;;;;;;4980987;28;20554;-76
2021/03/03 01:48:15;;;;;;;14.40;9.17;;;0.80;63.60;;;;;;4983293;28;20814;-75
2021/03/03 01:50:41;;;;;;;17.13;9.83;;;0.80;64.10;;;;;;4980692;28;20449;-79
2021/03/03 01:53:08;;;;;;;16.80;9.13;;;0.90;64.20;;;;;;4983500;28;20468;-75
2021/03/03 01:55:36;;;;;;;16.40;10.30;;;0.80;64.30;;;;;;4984256;28;20455;-76
2021/03/03 01:58:03;;;;;;;13.60;9.40;;;0.60;65.10;;;;;;4981814;28;20456;-74
2021/03/03 02:00:30;;;;;;;15.23;9.53;;;0.60;65.70;;;;;;4983299;28;20487;-75
2021/03/03 02:05:34;;;;;;;16.10;11.30;;;0.50;65.70;;;;;;5083592;27;20950;-79
2021/03/03 02:08:06;;;;;;;17.17;10.07;;;0.40;66.50;;;;;;5078094;28;20456;-76
2021/03/03 02:10:41;;;;;;;18.07;10.33;;;0.40;67.00;;;;;;5085462;28;20484;-76
2021/03/03 02:13:11;;;;;;;17.80;9.40;;;0.40;67.30;;;;;;5082954;28;20537;-75
2021/03/03 02:15:41;;;;;;;13.80;10.07;;;0.40;67.80;;;;;;5081624;28;21040;-77
2021/03/03 02:18:10;;;;;;;14.27;9.40;;;0.40;68.10;;;;;;5076517;28;20520;-75
2021/03/03 02:20:47;;;;;;;14.37;9.37;;;0.50;68.20;;;;;;5082095;28;20448;-76
2021/03/03 02:23:19;;;;;;;18.73;10.33;;;0.50;68.00;;;;;;5075880;28;20463;-76
2021/03/03 02:25:47;;;;;;;14.33;9.53;;;0.50;68.10;;;;;;5078463;28;20459;-75
2021/03/03 02:28:14;;;;;;;16.70;9.27;;;0.50;68.40;;;;;;5077328;28;20444;-75
2021/03/03 02:30:44;;;;;;;13.33;9.53;;;0.50;68.70;;;;;;5079535;28;20534;-75
2021/03/03 02:33:13;;;;;;;14.37;10.37;;;0.50;68.90;;;;;;5079045;28;20454;-77
2021/03/03 02:35:40;;;;;;;16.00;9.57;;;0.50;69.30;;;;;;5080815;28;20452;-77
2021/03/03 02:38:07;;;;;;;15.60;9.70;;;0.40;69.40;;;;;;5077123;28;20466;-76
2021/03/03 02:40:34;;;;;;;17.43;10.23;;;0.40;69.50;;;;;;5080953;28;20535;-76
2021/03/03 02:43:02;;;;;;;16.10;9.50;;;0.40;69.50;;;;;;5078424;28;20448;-76
2021/03/03 02:45:29;;;;;;;14.70;9.90;;;0.40;70.10;;;;;;5081248;28;20483;-76
2021/03/03 02:47:56;;;;;;;21.30;12.00;;;0.40;70.40;;;;;;5080785;28;20460;-76
2021/03/03 02:50:23;;;;;;;14.63;10.00;;;0.30;70.50;;;;;;5081124;28;20472;-79
2021/03/03 02:52:51;;;;;;;13.80;9.97;;;0.30;70.70;;;;;;5086630;28;20479;-76
2021/03/03 02:55:18;;;;;;;16.60;11.47;;;0.30;70.90;;;;;;5073858;28;20611;-77
2021/03/03 02:57:45;;;;;;;13.30;9.60;;;0.30;71.60;;;;;;5081688;28;20496;-78
2021/03/03 03:00:15;;;;;;;18.60;11.27;;;0.30;71.50;;;;;;5080681;28;20458;-76
2021/03/03 03:02:42;;;;;;;19.53;10.40;;;0.30;72.20;;;;;;5082666;28;20881;-76
2021/03/03 03:05:11;;;;;;;14.60;10.27;;;0.40;72.50;;;;;;5080158;28;20487;-76
2021/03/03 03:07:41;;;;;;;15.20;10.33;;;0.40;72.30;;;;;;5082759;28;20447;-76
2021/03/03 03:10:13;;;;;;;17.60;10.63;;;0.40;72.30;;;;;;5084693;28;20466;-76
2021/03/03 03:12:41;;;;;;;14.53;9.33;;;0.40;72.70;;;;;;5083323;28;20500;-75
2021/03/03 03:15:09;;;;;;;17.63;11.00;;;0.40;72.50;;;;;;5075406;28;20465;-77
2021/03/03 03:17:38;;;;;;;17.70;9.90;;;0.40;72.40;;;;;;5069804;28;20464;-75
2021/03/03 03:20:05;;;;;;;12.93;9.40;;;0.30;72.50;;;;;;5066630;28;20445;-76
2021/03/03 03:22:33;;;;;;;17.30;10.27;;;0.30;72.90;;;;;;5065241;28;20480;-76
2021/03/03 03:25:02;;;;;;;13.30;9.50;;;0.20;72.80;;;;;;5064417;28;20497;-75
2021/03/03 03:27:30;;;;;;;16.90;10.10;;;0.10;73.60;;;;;;5071164;28;20487;-75
2021/03/03 03:29:58;;;;;;;16.13;10.63;;;0.20;75.00;;;;;;5067296;28;20448;-75
2021/03/03 03:32:25;;;;;;;18.60;10.23;;;0.10;73.90;;;;;;5068461;28;20441;-75
2021/03/03 03:34:53;;;;;;;19.07;11.90;;;0.10;74.20;;;;;;5064526;28;20459;-76
2021/03/03 03:37:21;;;;;;;17.50;11.07;;;0.00;74.50;;;;;;5068123;28;20572;-78
2021/03/03 03:39:47;;;;;;;18.20;10.70;;;0.10;75.70;;;;;;5064705;28;20472;-77
2021/03/03 03:42:15;;;;;;;15.03;10.23;;;0.00;75.10;;;;;;5062503;28;20993;-76
2021/03/03 03:44:43;;;;;;;15.40;10.50;;;0.00;76.40;;;;;;5064170;28;20865;-75
2021/03/03 03:47:11;;;;;;;18.53;10.70;;;0.10;76.60;;;;;;5066563;28;20505;-75
2021/03/03 03:49:38;;;;;;;19.33;11.70;;;0.10;75.80;;;;;;5065078;28;20457;-77
2021/03/03 03:52:05;;;;;;;21.80;12.10;;;0.10;76.30;;;;;;5063875;28;20453;-75
2021/03/03 03:54:31;;;;;;;17.83;13.00;;;0.10;76.50;;;;;;5064491;28;20559;-77
2021/03/03 03:56:58;;;;;;;20.67;11.67;;;0.10;76.50;;;;;;5068166;28;20485;-75
2021/03/03 03:59:24;;;;;;;17.77;11.67;;;0.00;76.80;;;;;;5067048;28;20472;-76
2021/03/03 04:01:51;;;;;;;19.83;12.57;;;0.00;77.30;;;;;;5066755;28;20861;-76
2021/03/03 04:04:17;;;;;;;18.67;11.40;;;0.10;78.10;;;;;;5070765;28;20499;-78
2021/03/03 04:06:43;;;;;;;20.23;11.87;;;0.00;76.90;;;;;;5067829;28;20449;-76
2021/03/03 04:09:10;;;;;;;23.23;11.93;;;0.00;77.30;;;;;;5069080;28;20448;-76
2021/03/03 04:11:37;;;;;;;21.87;10.80;;;-0.10;77.40;;;;;;5065913;28;20464;-76
2021/03/03 04:14:08;;;;;;;28.67;12.70;;;0.00;77.90;;;;;;5067297;28;20554;-76
2021/03/03 04:16:34;;;;;;;18.20;11.13;;;0.00;78.20;;;;;;5068367;28;20484;-77
2021/03/03 04:19:00;;;;;;;20.10;11.97;;;-0.10;78.20;;;;;;5063849;28;20444;-74
2021/03/03 04:21:27;;;;;;;20.50;12.23;;;-0.10;78.80;;;;;;5065403;28;20536;-75
2021/03/03 04:23:53;;;;;;;20.37;11.77;;;-0.10;79.30;;;;;;5062731;28;20464;-75
2021/03/03 04:26:20;;;;;;;18.47;11.47;;;-0.10;79.60;;;;;;5064017;28;20445;-77
2021/03/03 04:28:47;;;;;;;23.00;11.47;;;;;;;;;;5061503;28;20456;-77
2021/03/03 04:31:13;;;;;;;22.77;12.70;;;-0.10;80.50;;;;;;5063192;28;20818;-75
2021/03/03 04:33:39;;;;;;;18.07;12.13;;;0.00;81.00;;;;;;5062163;28;20445;-78
2021/03/03 04:36:07;;;;;;;19.13;11.57;;;-0.10;80.60;;;;;;5063469;28;20672;-76
2021/03/03 04:38:33;;;;;;;19.23;12.67;;;-0.10;79.60;;;;;;5061544;28;20528;-76
2021/03/03 04:41:00;;;;;;;22.67;12.90;;;-0.10;81.20;;;;;;5064015;28;20501;-78
2021/03/03 04:43:27;;;;;;;22.90;13.70;;;-0.10;81.20;;;;;;5065650;28;20532;-75
2021/03/03 04:45:54;;;;;;;22.30;13.20;;;-0.20;81.60;;;;;;5070490;28;21021;-75
2021/03/03 04:48:20;;;;;;;19.40;12.40;;;-0.30;81.60;;;;;;5071604;28;20495;-75
2021/03/03 04:50:46;;;;;;;22.87;12.67;;;-0.30;83.80;;;;;;5067957;28;20554;-75
2021/03/03 04:53:13;;;;;;;19.40;13.47;;;-0.20;84.00;;;;;;5064579;28;20619;-76
2021/03/03 04:55:39;;;;;;;21.03;12.63;;;-0.40;82.60;;;;;;5066962;28;20456;-76
2021/03/03 04:58:06;;;;;;;18.87;13.67;;;-0.40;83.80;;;;;;5063225;28;20471;-77
2021/03/03 05:00:34;;;;;;;19.27;12.70;;;-0.30;84.00;;;;;;5068571;28;20457;-77
2021/03/03 05:03:00;;;;;;;20.80;13.23;;;-0.40;83.00;;;;;;5067988;28;20787;-76
2021/03/03 05:05:27;;;;;;;21.37;13.93;;;-0.40;83.80;;;;;;5063207;28;20566;-76
2021/03/03 05:07:53;;;;;;;21.67;14.00;;;-0.50;84.80;;;;;;5065234;28;20485;-75
2021/03/03 05:10:20;;;;;;;22.07;13.97;;;-0.40;86.50;;;;;;5062259;28;20587;-75
2021/03/03 05:12:46;;;;;;;23.97;14.33;;;-0.30;84.80;;;;;;5064999;28;20857;-75
2021/03/03 05:15:14;;;;;;;19.83;13.63;;;-0.30;84.50;;;;;;5060816;28;20472;-75
2021/03/03 05:17:41;;;;;;;28.90;15.40;;;-0.30;84.70;;;;;;5066510;28;20496;-75
2021/03/03 05:20:09;;;;;;;21.23;13.23;;;-0.30;84.80;;;;;;5065665;28;20467;-76
2021/03/03 05:22:35;;;;;;;22.57;13.80;;;-0.30;85.40;;;;;;5064231;28;20458;-77
2021/03/03 05:25:02;;;;;;;23.70;15.60;;;-0.30;85.40;;;;;;5061326;28;20923;-75
2021/03/03 05:27:28;;;;;;;28.17;15.90;;;-0.20;85.50;;;;;;5062713;28;20455;-75
2021/03/03 05:29:54;;;;;;;22.00;14.30;;;-0.30;85.50;;;;;;5062361;28;20455;-75
2021/03/03 05:32:21;;;;;;;27.63;15.50;;;-0.20;85.80;;;;;;5064134;28;20938;-76
2021/03/03 05:34:48;;;;;;;26.87;15.40;;;-0.10;85.70;;;;;;5059330;28;20841;-75
2021/03/03 05:37:14;;;;;;;23.77;14.50;;;-0.30;84.40;;;;;;5060663;28;20547;-76
2021/03/03 05:39:41;;;;;;;34.93;14.80;;;-0.30;85.10;;;;;;5059672;28;20456;-75
2021/03/03 05:42:07;;;;;;;22.93;14.57;;;-0.30;85.30;;;;;;5062251;28;20449;-75
2021/03/03 05:44:34;;;;;;;25.83;15.40;;;-0.20;85.90;;;;;;5063004;28;20579;-76
2021/03/03 05:47:03;;;;;;;24.97;15.17;;;-0.20;85.70;;;;;;5060663;28;20533;-75
2021/03/03 05:49:34;;;;;;;23.30;15.40;;;-0.10;85.60;;;;;;5062733;28;20507;-77
2021/03/03 05:52:02;;;;;;;30.53;16.87;;;-0.10;84.40;;;;;;5066123;28;20487;-75
2021/03/03 05:54:30;;;;;;;30.43;15.40;;;-0.10;84.70;;;;;;5063929;28;20491;-75
2021/03/03 05:56:58;;;;;;;30.47;15.80;;;-0.10;85.00;;;;;;5066745;28;20562;-75
2021/03/03 05:59:25;;;;;;;22.83;14.77;;;0.00;84.50;;;;;;5064436;28;20548;-75
2021/03/03 06:01:52;;;;;;;25.70;15.30;;;0.10;83.70;;;;;;5063693;28;20480;-75
2021/03/03 06:04:19;;;;;;;25.63;15.60;;;0.20;83.30;;;;;;5064973;28;21054;-78
2021/03/03 06:06:45;;;;;;;24.03;15.50;;;0.20;83.10;;;;;;5061494;28;20518;-76
2021/03/03 06:09:13;;;;;;;23.13;15.13;;;0.40;82.80;;;;;;5067013;28;20517;-77
2021/03/03 06:11:39;;;;;;;24.40;15.30;;;0.40;81.20;;;;;;5063798;28;20600;-76
2021/03/03 06:14:06;;;;;;;23.50;14.90;;;0.60;80.60;;;;;;5064447;28;21040;-76
2021/03/03 06:16:32;;;;;;;23.70;14.67;;;0.60;80.00;;;;;;5062778;28;20506;-77
2021/03/03 06:18:59;;;;;;;23.43;15.50;;;0.80;79.20;;;;;;5063474;28;20441;-76
2021/03/03 06:21:27;;;;;;;24.63;14.17;;;0.80;78.30;;;;;;5061959;28;21227;-77
2021/03/03 06:24:01;;;;;;;32.30;15.83;;;0.90;78.40;;;;;;5060463;28;20567;-76
2021/03/03 06:26:28;;;;;;;26.57;16.10;;;1.00;77.60;;;;;;5061255;28;20481;-77
2021/03/03 06:28:55;;;;;;;23.80;13.17;;;1.10;77.10;;;;;;5062249;28;21027;-75
2021/03/03 06:31:27;;;;;;;20.20;14.27;;;1.30;76.80;;;;;;5064815;28;20475;-75
2021/03/03 06:33:54;;;;;;;23.97;14.63;;;1.40;76.80;;;;;;5058952;28;20490;-76
2021/03/03 06:36:26;;;;;;;22.73;14.67;;;1.50;76.40;;;;;;5062595;28;20603;-75
2021/03/03 06:38:53;;;;;;;23.77;15.40;;;1.60;75.70;;;;;;5060521;28;20449;-75
2021/03/03 06:41:19;;;;;;;22.80;15.30;;;1.60;76.00;;;;;;5058339;28;20544;-75
2021/03/03 06:43:57;;;;;;;25.40;15.27;;;1.60;75.60;;;;;;5064583;28;20543;-77
2021/03/03 06:46:24;;;;;;;25.37;14.00;;;1.80;75.10;;;;;;5059287;28;20496;-75
2021/03/03 06:48:51;;;;;;;23.30;15.27;;;1.80;75.40;;;;;;5062398;28;20445;-76
2021/03/03 06:51:27;;;;;;;20.30;14.70;;;1.80;74.90;;;;;;5065233;28;20465;-76
2021/03/03 06:53:55;;;;;;;21.70;14.90;;;1.90;74.70;;;;;;5065824;28;20461;-76
2021/03/03 06:56:46;;;;;;;25.63;15.47;;;2.00;74.40;;;;;;5068181;28;20440;-76
2021/03/03 06:59:16;;;;;;;27.83;15.17;;;1.90;73.50;;;;;;5066488;28;20481;-81
2021/03/03 07:01:43;;;;;;;24.38;18.00;;;1.80;73.40;;;;;;5072576;28;20458;-77
2021/03/03 07:04:27;;;;;;;31.13;15.77;;;1.90;73.80;;;;;;5070305;28;20296;-77
2021/03/03 07:06:55;;;;;;;26.80;14.07;;;2.20;73.30;;;;;;5079430;28;20465;-77
2021/03/03 07:09:24;;;;;;;22.57;15.80;;;2.30;72.70;;;;;;5081992;28;20454;-78
2021/03/03 07:12:00;;;;;;;24.93;14.20;;;2.50;72.90;;;;;;5075853;28;20458;-78
2021/03/03 07:14:27;;;;;;;27.20;15.50;;;2.60;73.10;;;;;;5077450;28;20658;-78
2021/03/03 07:17:01;;;;;;;25.30;16.27;;;2.80;72.70;;;;;;5074446;28;20533;-79
2021/03/03 07:19:28;;;;;;;27.33;15.63;;;2.90;72.40;;;;;;5069355;28;20456;-78
2021/03/03 07:21:54;;;;;;;32.17;15.37;;;2.90;72.20;;;;;;5068226;28;20448;-80
2021/03/03 07:24:21;;;;;;;25.87;16.20;;;3.10;72.10;;;;;;5070874;28;20478;-78
2021/03/03 07:26:48;;;;;;;24.90;16.10;;;3.20;71.60;;;;;;5074098;28;20455;-78
2021/03/03 07:29:15;;;;;;;25.80;16.60;;;3.20;72.00;;;;;;5074684;28;20818;-77
2021/03/03 07:31:42;;;;;;;26.17;15.67;;;3.00;71.20;;;;;;5072155;28;20447;-80
2021/03/03 07:34:10;;;;;;;25.83;15.93;;;3.30;72.10;;;;;;5068167;28;20446;-78
2021/03/03 07:36:37;;;;;;;26.23;16.30;;;3.40;72.10;;;;;;5071122;28;20458;-79
2021/03/03 07:39:05;;;;;;;29.83;16.60;;;3.50;72.00;;;;;;5067693;28;20887;-80
2021/03/03 07:41:41;;;;;;;32.27;17.50;;;3.50;71.20;;;;;;5066872;28;20541;-78
2021/03/03 07:44:08;;;;;;;21.23;15.83;;;3.60;70.80;;;;;;5064508;28;20468;-79
2021/03/03 07:46:35;;;;;;;31.27;17.97;;;3.60;71.00;;;;;;5064619;28;20484;-80
2021/03/03 07:49:03;;;;;;;29.80;18.40;;;3.90;70.30;;;;;;5069481;28;20522;-80
2021/03/03 07:51:30;;;;;;;28.43;17.30;;;4.10;70.50;;;;;;5068209;28;20992;-79
2021/03/03 07:53:57;;;;;;;28.17;17.47;;;4.30;69.70;;;;;;5066335;28;20793;-79
2021/03/03 07:56:25;;;;;;;27.73;17.50;;;4.50;69.40;;;;;;5069286;28;20534;-81
2021/03/03 07:58:52;;;;;;;28.70;19.73;;;4.50;69.50;;;;;;5073260;28;20450;-80
2021/03/03 08:01:18;;;;;;;28.20;17.67;;;4.70;69.30;;;;;;5067317;28;20467;-79
2021/03/03 08:03:47;;;;;;;28.03;20.07;;;4.60;69.00;;;;;;5069148;28;20489;-80
2021/03/03 08:06:34;;;;;;;28.70;18.80;;;4.50;69.00;;;;;;5070856;28;20512;-79
2021/03/03 08:09:20;;;;;;;29.03;19.57;;;4.50;68.70;;;;;;5066988;28;20460;-79
2021/03/03 08:12:00;;;;;;;29.53;19.27;;;4.60;68.70;;;;;;5068783;28;20537;-80
2021/03/03 08:14:35;;;;;;;32.33;19.23;;;4.70;68.20;;;;;;5073220;28;20453;-81
2021/03/03 08:17:07;;;;;;;35.87;20.40;;;4.80;68.40;;;;;;5075002;28;20554;-81
2021/03/03 08:19:58;;;;;;;33.83;21.47;;;4.90;68.60;;;;;;5077877;28;20458;-81
2021/03/03 08:22:51;;;;;;;29.97;20.80;;;5.30;68.00;;;;;;5079442;28;20507;-82
2021/03/03 08:25:43;;;;;;;35.78;24.98;;;5.30;68.30;;;;;;5081896;28;20565;-80
2021/03/03 08:28:24;;;;;;;36.13;27.25;;;5.20;68.00;;;;;;5068359;28;20466;-75
2021/03/03 08:31:30;;;;;;;35.50;23.63;;;5.50;67.60;;;;;;5068956;28;20216;-77
2021/03/03 08:33:59;;;;;;;31.47;21.83;;;5.60;67.80;;;;;;5073845;28;20451;-78
2021/03/03 08:37:00;;;;;;;34.00;21.80;;;5.70;67.60;;;;;;5064418;28;20447;-78
2021/03/03 08:39:47;;;;;;;46.60;23.50;;;6.20;66.90;;;;;;5066798;28;20453;-76
2021/03/03 08:42:29;;;;;;;53.57;23.90;;;6.30;66.70;;;;;;5062405;28;20513;-76
2021/03/03 08:45:15;;;;;;;39.78;24.13;;;6.50;66.60;;;;;;5065751;28;20531;-80
2021/03/03 08:47:53;;;;;;;31.00;21.37;;;6.60;65.50;;;;;;5061970;28;20228;-80
2021/03/03 08:50:47;;;;;;;33.50;24.33;;;6.60;65.90;;;;;;5065586;28;20442;-77
2021/03/03 08:53:48;;;;;;;37.50;22.30;;;6.70;65.60;;;;;;5058468;28;20482;-78
2021/03/03 08:56:34;;;;;;;35.40;21.77;;;7.10;64.90;;;;;;5061835;28;20440;-79
2021/03/03 08:59:02;;;;;;;38.03;23.50;;;7.20;64.80;;;;;;5068233;28;20482;-78
2021/03/03 09:02:07;;;;;;;35.80;22.50;;;7.20;64.30;;;;;;5065981;28;20449;-78
2021/03/03 09:04:40;;;;;;;31.63;21.70;;;7.30;64.30;;;;;;5058534;28;20460;-77
2021/03/03 09:07:09;;;;;;;34.80;22.23;;;7.40;63.50;;;;;;5063536;28;20452;-79
2021/03/03 09:09:37;;;;;;;40.60;23.37;;;7.30;63.70;;;;;;5067200;28;20463;-78
2021/03/03 09:12:06;;;;;;;31.10;23.73;;;7.40;63.50;;;;;;5068514;28;20446;-79
2021/03/03 09:14:34;;;;;;;33.80;23.37;;;7.50;64.00;;;;;;5064203;28;20448;-79
2021/03/03 09:17:03;;;;;;;44.20;24.30;;;7.60;63.50;;;;;;5065013;28;20471;-79
2021/03/03 09:19:32;;;;;;;38.73;22.87;;;7.70;63.00;;;;;;5066770;28;20498;-78
2021/03/03 09:21:59;;;;;;;33.40;22.10;;;7.60;62.60;;;;;;5068119;28;20468;-78
2021/03/03 09:24:26;;;;;;;35.57;22.47;;;7.90;62.50;;;;;;5066136;28;20466;-78
2021/03/03 09:27:06;;;;;;;34.83;23.33;;;8.00;62.00;;;;;;5068598;28;20963;-77
2021/03/03 09:29:34;;;;;;;63.10;25.90;;;8.10;62.00;;;;;;5069168;28;20476;-78
2021/03/03 09:32:05;;;;;;;51.40;23.33;;;8.20;61.00;;;;;;5074250;28;20455;-80
2021/03/03 09:34:34;;;;;;;31.57;21.87;;;8.40;61.10;;;;;;5075477;28;20487;-80
2021/03/03 09:37:03;;;;;;;33.97;21.60;;;8.30;60.50;;;;;;5077203;28;20554;-81
2021/03/03 09:39:30;;;;;;;37.70;23.40;;;8.50;60.60;;;;;;5075259;28;20550;-78
2021/03/03 09:42:02;;;;;;;38.27;24.20;;;8.50;60.50;;;;;;5070010;28;20519;-75
2021/03/03 09:44:44;;;;;;;39.40;23.67;;;8.60;60.50;;;;;;5067186;28;20494;-81
2021/03/03 09:47:11;;;;;;;34.50;24.85;;;8.80;60.80;;;;;;5068174;28;20454;-82
2021/03/03 09:49:38;;;;;;;42.33;25.10;;;9.20;59.60;;;;;;5074913;28;20220;-82
2021/03/03 09:52:05;;;;;;;38.73;23.50;;;9.10;59.30;;;;;;5079416;28;20445;-86
2021/03/03 09:54:35;;;;;;;31.77;23.57;;;9.10;59.70;;;;;;5080412;28;20452;-83
2021/03/03 09:57:12;;;;;;;27.90;22.67;;;9.50;58.70;;;;;;5076594;28;20453;-86
2021/03/03 09:59:44;;;;;;;38.20;23.23;;;9.50;58.90;;;;;;5083802;28;20516;-87
2021/03/03 10:02:12;;;;;;;39.27;24.13;;;9.80;58.60;;;;;;5083721;28;20450;-86
2021/03/03 10:04:40;;;;;;;38.23;24.50;;;10.10;56.70;;;;;;5088441;28;21051;-86
2021/03/03 10:07:11;;;;;;;43.17;24.20;;;10.10;56.90;;;;;;5081367;28;20446;-82
2021/03/03 10:09:40;;;;;;;39.28;27.33;;;9.90;57.20;;;;;;5074434;28;21041;-77
2021/03/03 10:12:14;;;;;;;38.43;24.73;;;9.90;57.30;;;;;;5081834;28;20202;-77
2021/03/03 10:15:04;;;;;;;31.43;22.37;;;10.00;56.50;;;;;;5076594;28;20566;-80
2021/03/03 10:17:34;;;;;;;32.30;22.77;;;10.20;56.00;;;;;;5079486;28;20516;-77
2021/03/03 10:20:01;;;;;;;38.45;24.60;;;10.30;56.20;;;;;;5075841;28;20462;-78
2021/03/03 10:22:28;;;;;;;54.57;26.53;;;10.40;55.80;;;;;;5073445;28;20256;-75
2021/03/03 10:24:56;;;;;;;47.97;25.97;;;10.50;55.80;;;;;;5071151;28;20468;-79
2021/03/03 10:27:23;;;;;;;30.87;24.90;;;10.30;54.60;;;;;;5075857;28;20467;-80
2021/03/03 10:29:50;;;;;;;62.00;26.63;;;10.30;55.10;;;;;;5076784;28;20505;-79
2021/03/03 10:32:18;;;;;;;43.50;24.67;;;10.60;55.20;;;;;;5082829;28;20987;-82
2021/03/03 10:34:45;;;;;;;37.13;26.13;;;10.70;54.90;;;;;;5082026;28;20451;-78
2021/03/03 10:37:23;;;;;;;51.53;26.90;;;10.80;54.80;;;;;;5080392;28;20461;-79
2021/03/03 10:39:51;;;;;;;40.28;26.60;;;11.00;54.30;;;;;;5080857;28;20434;-78
2021/03/03 10:42:22;;;;;;;73.17;31.10;;;11.20;54.20;;;;;;5087886;28;20446;-81
2021/03/03 10:44:52;;;;;;;42.63;26.40;;;11.10;54.00;;;;;;5092260;28;20453;-82
2021/03/03 10:47:42;;;;;;;40.13;25.30;;;10.80;53.60;;;;;;5088855;28;20488;-81
2021/03/03 10:50:10;;;;;;;33.33;25.80;;;11.20;54.10;;;;;;5088163;28;20471;-82
2021/03/03 10:52:40;;;;;;;43.47;27.23;;;11.40;53.60;;;;;;5094381;28;20482;-87
2021/03/03 10:55:24;;;;;;;37.37;25.80;;;11.30;53.70;;;;;;5092570;28;20521;-86
2021/03/03 10:58:08;;;;;;;31.10;25.63;;;11.00;53.60;;;;;;5095714;28;20559;-85
2021/03/03 11:00:59;;;;;;;42.70;25.90;;;10.70;53.70;;;;;;5094776;28;20564;-82
2021/03/03 11:03:28;;;;;;;81.07;32.83;;;11.00;53.80;;;;;;5085759;28;20467;-84
2021/03/03 11:05:56;;;;;;;39.70;27.27;;;11.30;53.30;;;;;;5089538;28;20465;-81
2021/03/03 11:08:24;;;;;;;47.67;26.60;;;11.50;53.00;;;;;;5089727;28;20467;-86
2021/03/03 11:10:51;;;;;;;32.53;25.87;;;11.20;53.20;;;;;;5081290;28;20950;-81
2021/03/03 11:13:18;;;;;;;42.23;25.77;;;11.30;52.90;;;;;;5097000;28;20448;-81
2021/03/03 11:15:45;;;;;;;31.77;24.83;;;11.40;53.30;;;;;;5089392;28;20502;-81
2021/03/03 11:18:14;;;;;;;37.70;25.97;;;11.70;53.00;;;;;;5088880;28;20480;-82
2021/03/03 11:20:42;;;;;;;41.70;26.60;;;11.70;52.80;;;;;;5085336;28;20443;-83
2021/03/03 11:23:08;;;;;;;36.35;27.75;;;11.60;52.20;;;;;;5088094;28;20457;-81
2021/03/03 11:25:35;;;;;;;90.23;30.10;;;11.60;52.30;;;;;;5083182;28;20209;-80
2021/03/03 11:28:01;;;;;;;43.30;26.80;;;11.90;52.50;;;;;;5082070;28;20437;-80
2021/03/03 11:30:28;;;;;;;40.40;26.73;;;12.00;52.20;;;;;;5081839;28;20461;-78
2021/03/03 11:32:55;;;;;;;32.60;26.47;;;12.20;52.00;;;;;;5082809;28;20460;-78
2021/03/03 11:35:22;;;;;;;32.07;25.20;;;12.20;51.70;;;;;;5081148;28;20557;-80
2021/03/03 11:37:49;;;;;;;31.37;25.47;;;12.40;51.50;;;;;;5079392;28;20458;-79
2021/03/03 11:40:16;;;;;;;34.10;25.20;;;12.40;51.40;;;;;;5079477;28;20447;-79
2021/03/03 11:42:42;;;;;;;68.33;30.30;;;12.40;51.20;;;;;;5077121;28;20533;-81
2021/03/03 11:45:10;;;;;;;40.17;27.87;;;12.60;50.60;;;;;;5083728;28;20453;-81
2021/03/03 11:47:36;;;;;;;33.93;25.47;;;12.50;50.40;;;;;;5074201;28;20601;-80
2021/03/03 11:50:04;;;;;;;41.20;26.63;;;12.30;50.50;;;;;;5067210;28;20446;-79
2021/03/03 11:52:30;;;;;;;35.80;26.83;;;12.20;50.50;;;;;;5078811;28;20911;-81
2021/03/03 11:54:58;;;;;;;74.73;31.93;;;12.20;50.60;;;;;;5071914;28;20449;-79
2021/03/03 11:57:24;;;;;;;48.30;28.60;;;12.20;50.60;;;;;;5069030;28;20450;-79
2021/03/03 11:59:51;;;;;;;43.77;27.60;;;12.40;50.60;;;;;;5075197;28;21087;-82
2021/03/03 12:02:18;;;;;;;36.33;24.70;;;12.50;50.70;;;;;;5078635;28;20539;-79
2021/03/03 12:04:44;;;;;;;33.80;27.17;;;12.50;50.10;;;;;;5076086;28;21045;-83
2021/03/03 12:07:11;;;;;;;36.77;26.00;;;12.70;50.00;;;;;;5078610;28;20488;-80
2021/03/03 12:09:37;;;;;;;30.53;25.33;;;12.30;50.00;;;;;;5068685;28;20458;-80
2021/03/03 12:12:06;;;;;;;40.40;27.10;;;11.90;50.20;;;;;;5071768;28;20458;-78
2021/03/03 12:14:32;;;;;;;36.87;23.90;;;11.80;50.10;;;;;;5068008;28;20458;-80
2021/03/03 12:16:59;;;;;;;43.57;25.97;;;11.70;50.40;;;;;;5084018;28;21107;-81
2021/03/03 12:19:26;;;;;;;39.33;26.87;;;11.80;50.40;;;;;;5079736;28;20459;-83
2021/03/03 12:21:53;;;;;;;53.93;29.93;;;12.10;49.60;;;;;;5068206;28;20452;-78
2021/03/03 12:24:19;;;;;;;33.10;27.52;;;12.20;50.10;;;;;;5070634;28;20455;-78
2021/03/03 12:26:45;;;;;;;114.25;35.97;;;12.20;50.40;;;;;;5073988;28;20808;-79
2021/03/03 12:29:13;;;;;;;45.97;28.40;;;12.50;50.40;;;;;;5068622;28;20227;-78
2021/03/03 12:31:39;;;;;;;32.53;26.53;;;12.50;50.40;;;;;;5066767;28;20449;-79
2021/03/03 12:34:06;;;;;;;32.40;27.42;;;12.60;50.20;;;;;;5067585;28;20458;-80
2021/03/03 12:36:32;;;;;;;77.97;31.20;;;12.40;50.00;;;;;;5077310;28;20236;-81
2021/03/03 12:38:59;;;;;;;34.37;25.20;;;12.60;49.90;;;;;;5083483;28;20455;-83
2021/03/03 12:41:26;;;;;;;320.20;52.97;;;12.60;50.10;;;;;;5071207;28;20460;-81
2021/03/03 12:43:53;;;;;;;72.30;30.30;;;12.80;49.70;;;;;;5072485;28;20449;-82
2021/03/03 12:46:21;;;;;;;32.20;25.77;;;12.80;49.70;;;;;;5070072;28;20536;-81
2021/03/03 12:48:47;;;;;;;40.80;25.70;;;13.10;49.80;;;;;;5069274;28;20511;-79